Time;durP1;ratioP1;P1;durP2;ratioP2;P2;SDS_P1;SDS_P2;PMS_P1;PMS_P2;Temp;Humidity;BMP_temperature;BMP_pressure;BME280_temperature;BME280_humidity;BME280_pressure;Samples;Min_cycle;Max_cycle;Signal;HPM_P1;HPM_P2
2021/08/03 00:00:52;;;;;;;2.05;1.63;;;;;;;;;;2080769;28;20186;-59
2021/08/03 00:01:53;;;;;;;2.08;1.85;;;;;;;;;;2079818;28;20179;-60
2021/08/03 00:02:55;;;;;;;2.85;2.30;;;;;;;;;;2079755;28;20188;-58
2021/08/03 00:04:14;;;;;;;1.98;1.88;;;;;;;;;;2086566;28;20281;-58
2021/08/03 00:05:23;;;;;;;2.17;1.88;;;;;;;;;;2080429;28;20168;-60
2021/08/03 00:06:23;;;;;;;2.08;1.98;;;;;;;;;;2081272;28;20568;-59
2021/08/03 00:07:25;;;;;;;1.70;1.60;;;;;;;;;;2080521;28;20181;-58
2021/08/03 00:08:31;;;;;;;2.30;2.20;;;;;;;;;;2079330;28;20199;-59
2021/08/03 00:09:32;;;;;;;2.90;1.92;;;;;;;;;;2080853;28;20543;-58
2021/08/03 00:10:32;;;;;;;2.30;2.13;;;;;;;;;;2080068;28;20176;-59
2021/08/03 00:11:33;;;;;;;3.60;2.20;;;;;;;;;;2080649;28;20656;-59
2021/08/03 00:12:33;;;;;;;2.25;1.98;;;;;;;;;;2081044;28;20562;-59
2021/08/03 00:13:34;;;;;;;2.67;2.13;;;;;;;;;;2080010;28;20171;-59
2021/08/03 00:14:36;;;;;;;5.00;2.22;;;;;;;;;;2080585;28;20553;-60
2021/08/03 00:15:37;;;;;;;2.15;2.00;;;;;;;;;;2080609;28;20176;-59
2021/08/03 00:16:38;;;;;;;4.95;2.20;;;;;;;;;;2081404;28;20246;-59
2021/08/03 00:17:39;;;;;;;2.72;1.90;;;;;;;;;;2080556;28;20180;-55
2021/08/03 00:18:40;;;;;;;3.83;2.50;;;;;;;;;;2080728;28;20160;-58
2021/08/03 00:19:40;;;;;;;3.72;2.65;;;;;;;;;;2080763;28;20187;-59
2021/08/03 00:20:41;;;;;;;2.40;2.17;;;;;;;;;;2080899;28;20734;-58
2021/08/03 00:21:41;;;;;;;3.42;2.83;;;;;;;;;;2080463;28;20180;-61
2021/08/03 00:22:41;;;;;;;3.13;2.28;;;;;;;;;;2080869;28;20176;-58
2021/08/03 00:23:44;;;;;;;2.40;2.20;;;;;;;;;;2075172;28;20661;-63
2021/08/03 00:24:44;;;;;;;3.53;2.20;;;;;;;;;;2081020;28;20183;-57
2021/08/03 00:25:44;;;;;;;3.17;2.25;;;;;;;;;;2076040;28;20262;-57
2021/08/03 00:26:44;;;;;;;2.78;2.47;;;;;;;;;;2074176;28;20192;-59
2021/08/03 00:27:45;;;;;;;2.95;2.00;;;;;;;;;;2074724;28;20218;-58
2021/08/03 00:28:51;;;;;;;2.58;2.08;;;;;;;;;;2078812;28;20697;-58
2021/08/03 00:29:52;;;;;;;2.30;2.20;;;;;;;;;;2081283;28;20653;-58
2021/08/03 00:30:52;;;;;;;3.65;2.35;;;;;;;;;;2082204;28;20176;-58
2021/08/03 00:31:53;;;;;;;2.30;2.10;;;;;;;;;;2081758;28;20169;-57
2021/08/03 00:32:54;;;;;;;2.28;2.10;;;;;;;;;;2084915;28;20246;-59
2021/08/03 00:33:55;;;;;;;2.60;2.40;;;;;;;;;;2082012;28;20168;-59
2021/08/03 00:34:56;;;;;;;2.47;2.28;;;;;;;;;;2076076;28;20241;-57
2021/08/03 00:35:56;;;;;;;2.72;2.00;;;;;;;;;;2082542;28;20291;-59
2021/08/03 00:36:57;;;;;;;2.30;2.10;;;;;;;;;;2082784;28;20172;-57
2021/08/03 00:38:01;;;;;;;2.78;2.22;;;;;;;;;;2081859;28;20176;-58
2021/08/03 00:39:02;;;;;;;4.10;2.30;;;;;;;;;;2073922;28;20204;-58
2021/08/03 00:40:07;;;;;;;4.03;2.45;;;;;;;;;;2073873;28;20188;-59
2021/08/03 00:41:17;;;;;;;3.83;2.42;;;;;;;;;;2074178;28;20180;-56
2021/08/03 00:42:17;;;;;;;3.08;2.50;;;;;;;;;;2074298;28;20288;-55
2021/08/03 00:43:19;;;;;;;4.30;2.60;;;;;;;;;;2080525;28;20596;-58
2021/08/03 00:44:19;;;;;;;2.60;2.40;;;;;;;;;;2082619;28;20180;-56
2021/08/03 00:45:20;;;;;;;3.10;2.72;;;;;;;;;;2082124;28;20258;-58
2021/08/03 00:46:23;;;;;;;5.07;2.67;;;;;;;;;;2081928;28;20274;-57
2021/08/03 00:47:23;;;;;;;3.65;3.35;;;;;;;;;;2082077;28;20184;-60
2021/08/03 00:48:28;;;;;;;2.97;2.70;;;;;;;;;;2072917;28;20231;-60
2021/08/03 00:49:29;;;;;;;3.67;2.63;;;;;;;;;;2080819;28;20168;-59
2021/08/03 00:50:30;;;;;;;2.60;2.40;;;;;;;;;;2079560;28;20177;-55
2021/08/03 00:51:30;;;;;;;3.72;2.80;;;;;;;;;;2080672;28;20545;-60
2021/08/03 00:52:31;;;;;;;5.47;3.00;;;;;;;;;;2080750;28;20172;-58
2021/08/03 00:53:32;;;;;;;3.38;2.90;;;;;;;;;;2081649;28;20376;-60
2021/08/03 00:54:32;;;;;;;2.55;2.35;;;;;;;;;;2072827;28;20172;-58
2021/08/03 00:55:33;;;;;;;2.95;2.65;;;;;;;;;;2078606;28;20173;-58
2021/08/03 00:56:34;;;;;;;3.47;3.17;;;;;;;;;;2072916;28;20236;-62
2021/08/03 00:57:36;;;;;;;3.90;2.75;;;;;;;;;;2073919;28;20164;-57
2021/08/03 00:58:39;;;;;;;4.85;3.30;;;;;;;;;;2081232;28;20168;-57
2021/08/03 00:59:39;;;;;;;4.10;2.83;;;;;;;;;;2082001;28;20172;-60
2021/08/03 01:00:40;;;;;;;3.17;2.72;;;;;;;;;;2081533;28;20164;-57
2021/08/03 01:01:41;;;;;;;3.20;2.60;;;;;;;;;;2072946;28;20173;-53
2021/08/03 01:02:42;;;;;;;3.70;2.47;;;;;;;;;;2080807;28;20199;-58
2021/08/03 01:03:42;;;;;;;3.40;3.10;;;;;;;;;;2081976;28;20653;-60
2021/08/03 01:04:43;;;;;;;3.00;2.80;;;;;;;;;;2081067;28;20186;-58
2021/08/03 01:05:56;;;;;;;5.03;2.88;;;;;;;;;;2081894;28;20173;-57
2021/08/03 01:07:00;;;;;;;9.88;2.92;;;;;;;;;;2077512;28;20172;-59
2021/08/03 01:08:19;;;;;;;3.85;2.85;;;;;;;;;;2089007;28;20604;-60
2021/08/03 01:09:26;;;;;;;4.32;2.70;;;;;;;;;;2080304;28;20203;-55
2021/08/03 01:10:37;;;;;;;4.20;3.10;;;;;;;;;;2078447;28;20165;-54
2021/08/03 01:11:56;;;;;;;4.43;3.30;;;;;;;;;;2080634;28;20242;-60
2021/08/03 01:13:05;;;;;;;3.22;2.92;;;;;;;;;;2072908;28;20309;-59
2021/08/03 01:14:24;;;;;;;4.90;2.95;;;;;;;;;;2081222;28;20175;-59
2021/08/03 01:15:30;;;;;;;3.65;3.08;;;;;;;;;;2075709;28;20260;-57
2021/08/03 01:16:51;;;;;;;3.28;3.00;;;;;;;;;;2079363;28;20192;-57
2021/08/03 01:17:54;;;;;;;6.00;3.13;;;;;;;;;;2074545;28;20540;-58
2021/08/03 01:19:18;;;;;;;3.53;2.80;;;;;;;;;;2081573;28;20184;-59
2021/08/03 01:20:24;;;;;;;4.15;3.20;;;;;;;;;;2081468;28;20629;-54
2021/08/03 01:21:26;;;;;;;3.70;3.40;;;;;;;;;;2084292;28;20658;-58
2021/08/03 01:22:45;;;;;;;3.63;3.20;;;;;;;;;;2081649;28;20254;-55
2021/08/03 01:23:45;;;;;;;3.40;3.10;;;;;;;;;;2083765;28;20270;-59
2021/08/03 01:25:12;;;;;;;3.58;3.22;;;;;;;;;;2081272;28;20687;-56
2021/08/03 01:26:13;;;;;;;3.67;3.30;;;;;;;;;;2072567;28;20201;-56
2021/08/03 01:27:25;;;;;;;6.38;3.33;;;;;;;;;;2081510;28;20199;-61
2021/08/03 01:28:30;;;;;;;4.10;3.20;;;;;;;;;;2081249;28;20192;-59
2021/08/03 01:29:31;;;;;;;4.80;3.90;;;;;;;;;;2080889;28;20287;-55
2021/08/03 01:30:33;;;;;;;4.20;3.80;;;;;;;;;;2079694;28;20204;-58
2021/08/03 01:31:36;;;;;;;4.97;3.60;;;;;;;;;;2086282;28;20187;-57
2021/08/03 01:32:41;;;;;;;3.67;3.47;;;;;;;;;;2081408;28;20184;-57
2021/08/03 01:33:49;;;;;;;3.97;3.58;;;;;;;;;;2073959;28;20215;-59
2021/08/03 01:34:50;;;;;;;4.75;3.78;;;;;;;;;;2069036;28;20175;-57
2021/08/03 01:35:52;;;;;;;5.32;3.67;;;;;;;;;;2081684;28;20176;-56
2021/08/03 01:36:54;;;;;;;5.57;3.65;;;;;;;;;;2081421;28;20350;-57
2021/08/03 01:37:58;;;;;;;3.83;3.53;;;;;;;;;;2080538;28;20176;-55
2021/08/03 01:38:59;;;;;;;4.65;3.88;;;;;;;;;;2075740;28;20207;-57
2021/08/03 01:40:02;;;;;;;4.65;4.07;;;;;;;;;;2079212;28;20173;-57
2021/08/03 01:41:05;;;;;;;5.82;4.22;;;;;;;;;;2080713;28;20184;-59
2021/08/03 01:42:08;;;;;;;4.90;4.00;;;;;;;;;;2073024;28;20184;-58
2021/08/03 01:43:11;;;;;;;4.30;4.00;;;;;;;;;;2080082;28;20172;-57
2021/08/03 01:44:12;;;;;;;5.15;4.65;;;;;;;;;;2081454;28;20195;-59
2021/08/03 01:45:14;;;;;;;5.70;4.72;;;;;;;;;;2072936;28;20181;-57
2021/08/03 01:46:16;;;;;;;5.68;4.07;;;;;;;;;;2081108;28;20286;-59
2021/08/03 01:47:18;;;;;;;3.97;3.67;;;;;;;;;;2081069;28;20791;-60
2021/08/03 01:48:20;;;;;;;5.10;4.50;;;;;;;;;;2072530;28;20288;-60
2021/08/03 01:49:22;;;;;;;6.60;4.40;;;;;;;;;;2071785;28;20599;-57
2021/08/03 01:50:23;;;;;;;4.60;4.03;;;;;;;;;;2078293;28;20206;-59
2021/08/03 01:51:32;;;;;;;6.32;4.03;;;;;;;;;;2080954;28;20211;-57
2021/08/03 01:52:33;;;;;;;4.68;4.28;;;;;;;;;;2080967;28;20262;-60
2021/08/03 01:53:37;;;;;;;5.25;4.32;;;;;;;;;;2080428;28;20172;-57
2021/08/03 01:54:39;;;;;;;4.65;4.25;;;;;;;;;;2079780;28;20210;-60
2021/08/03 01:55:40;;;;;;;6.78;4.70;;;;;;;;;;2072489;28;20189;-61
2021/08/03 01:56:48;;;;;;;5.40;4.90;;;;;;;;;;2078873;28;20164;-59
2021/08/03 01:57:49;;;;;;;5.85;4.45;;;;;;;;;;2080606;28;20544;-60
2021/08/03 01:59:02;;;;;;;4.50;4.00;;;;;;;;;;2068769;28;20220;-61
2021/08/03 02:00:04;;;;;;;5.93;4.35;;;;;;;;;;2080812;28;21002;-56
2021/08/03 02:01:19;;;;;;;3.45;3.22;;;;;;;;;;2080927;28;20180;-59
2021/08/03 02:02:20;;;;;;;3.78;3.47;;;;;;;;;;2089356;28;20574;-56
2021/08/03 02:03:28;;;;;;;4.05;3.30;;;;;;;;;;2088747;28;20928;-57
2021/08/03 02:04:44;;;;;;;3.95;3.45;;;;;;;;;;2087094;28;20182;-55
2021/08/03 02:05:47;;;;;;;4.00;3.70;;;;;;;;;;2080467;28;20219;-61
2021/08/03 02:07:02;;;;;;;3.70;3.40;;;;;;;;;;2074551;28;20172;-56
2021/08/03 02:08:04;;;;;;;3.67;3.30;;;;;;;;;;2081039;28;20218;-59
2021/08/03 02:09:07;;;;;;;4.80;4.40;;;;;;;;;;2072902;28;20645;-58
2021/08/03 02:10:08;;;;;;;4.60;4.05;;;;;;;;;;2064401;28;20181;-58
2021/08/03 02:11:08;;;;;;;3.83;3.53;;;;;;;;;;2080257;28;20561;-58
2021/08/03 02:12:10;;;;;;;4.20;3.80;;;;;;;;;;2081266;28;20164;-59
2021/08/03 02:13:11;;;;;;;4.15;3.70;;;;;;;;;;2088465;28;20176;-59
2021/08/03 02:14:11;;;;;;;7.28;4.38;;;;;;;;;;2089215;28;20569;-59
2021/08/03 02:15:35;;;;;;;4.40;4.00;;;;;;;;;;2080301;28;20184;-59
2021/08/03 02:16:35;;;;;;;4.97;4.07;;;;;;;;;;2081280;28;20176;-57
2021/08/03 02:17:37;;;;;;;4.32;3.55;;;;;;;;;;2079916;28;20179;-62
2021/08/03 02:19:05;;;;;;;6.05;4.25;;;;;;;;;;2074827;28;20230;-57
2021/08/03 02:20:16;;;;;;;4.40;3.50;;;;;;;;;;2073930;28;20165;-59
2021/08/03 02:21:22;;;;;;;4.20;3.80;;;;;;;;;;2070599;28;20260;-59
2021/08/03 02:22:23;;;;;;;4.20;3.75;;;;;;;;;;2081431;28;20175;-57
2021/08/03 02:23:37;;;;;;;3.92;3.63;;;;;;;;;;2081239;28;20175;-58
2021/08/03 02:24:42;;;;;;;4.85;4.35;;;;;;;;;;2073211;28;20173;-60
2021/08/03 02:25:45;;;;;;;5.40;4.22;;;;;;;;;;2065322;28;20169;-58
2021/08/03 02:26:45;;;;;;;4.85;4.00;;;;;;;;;;2080937;28;20246;-60
2021/08/03 02:27:46;;;;;;;5.43;4.35;;;;;;;;;;2081171;28;20183;-59
2021/08/03 02:28:47;;;;;;;8.48;4.25;;;;;;;;;;2080939;28;20180;-62
2021/08/03 02:29:47;;;;;;;4.60;4.20;;;;;;;;;;2080402;28;20660;-60
2021/08/03 02:30:50;;;;;;;4.38;4.07;;;;;;;;;;2080655;28;20191;-58
2021/08/03 02:31:55;;;;;;;4.47;4.07;;;;;;;;;;2072445;28;20628;-58
2021/08/03 02:33:14;;;;;;;5.15;3.63;;;;;;;;;;2078836;28;20180;-58
2021/08/03 02:34:20;;;;;;;3.88;3.47;;;;;;;;;;2084379;28;20171;-61
2021/08/03 02:35:23;;;;;;;4.13;3.45;;;;;;;;;;2088416;28;20171;-59
2021/08/03 02:36:26;;;;;;;5.82;3.70;;;;;;;;;;2080270;28;20582;-60
2021/08/03 02:37:32;;;;;;;4.32;3.92;;;;;;;;;;2073252;28;20543;-60
2021/08/03 02:38:36;;;;;;;5.15;4.68;;;;;;;;;;2074785;28;20351;-57
2021/08/03 02:39:37;;;;;;;4.10;3.70;;;;;;;;;;2079487;28;20180;-59
2021/08/03 02:40:39;;;;;;;3.80;3.50;;;;;;;;;;2083915;28;20506;-58
2021/08/03 02:41:48;;;;;;;3.80;3.45;;;;;;;;;;2083178;28;20224;-60
2021/08/03 02:42:50;;;;;;;3.63;3.42;;;;;;;;;;2083848;28;20208;-58
2021/08/03 02:43:52;;;;;;;4.22;3.90;;;;;;;;;;2083585;28;20181;-60
2021/08/03 02:44:56;;;;;;;4.55;4.15;;;;;;;;;;2081263;28;20574;-55
2021/08/03 02:46:01;;;;;;;5.25;4.22;;;;;;;;;;2077445;28;20187;-58
2021/08/03 02:47:17;;;;;;;5.50;5.00;;;;;;;;;;2086393;22;20310;-55
2021/08/03 02:48:20;;;;;;;5.05;4.65;;;;;;;;;;2075557;28;20227;-55
2021/08/03 02:49:34;;;;;;;13.63;4.85;;;;;;;;;;2077579;28;20207;-57
2021/08/03 02:50:35;;;;;;;5.90;4.00;;;;;;;;;;2074573;28;20542;-57
2021/08/03 02:51:36;;;;;;;5.40;4.28;;;;;;;;;;2081493;28;20172;-57
2021/08/03 02:52:38;;;;;;;5.65;3.90;;;;;;;;;;2081922;28;20207;-56
2021/08/03 02:53:45;;;;;;;4.50;4.10;;;;;;;;;;2081551;28;20236;-57
2021/08/03 02:54:57;;;;;;;4.90;4.50;;;;;;;;;;2081649;28;20157;-57
2021/08/03 02:56:03;;;;;;;4.88;4.20;;;;;;;;;;2074859;28;20185;-53
2021/08/03 02:57:09;;;;;;;5.10;4.70;;;;;;;;;;2067293;28;20224;-53
2021/08/03 02:58:18;;;;;;;5.25;4.75;;;;;;;;;;2070312;28;20268;-54
2021/08/03 02:59:19;;;;;;;5.18;4.25;;;;;;;;;;2073447;28;20223;-53
2021/08/03 03:00:21;;;;;;;4.78;4.35;;;;;;;;;;2073568;28;20173;-55
2021/08/03 03:01:24;;;;;;;5.95;4.78;;;;;;;;;;2073161;28;20213;-56
2021/08/03 03:02:31;;;;;;;4.28;3.92;;;;;;;;;;2064802;28;20538;-57
2021/08/03 03:03:36;;;;;;;4.18;3.72;;;;;;;;;;2071392;28;20259;-54
2021/08/03 03:04:39;;;;;;;4.60;4.18;;;;;;;;;;2080733;28;20168;-56
2021/08/03 03:05:43;;;;;;;4.65;3.90;;;;;;;;;;2081008;28;20188;-52
2021/08/03 03:06:47;;;;;;;5.15;3.67;;;;;;;;;;2081118;28;20187;-52
2021/08/03 03:07:49;;;;;;;4.72;3.85;;;;;;;;;;2072263;28;20200;-58
2021/08/03 03:08:53;;;;;;;4.50;3.83;;;;;;;;;;2065315;28;20927;-55
2021/08/03 03:09:55;;;;;;;4.78;3.60;;;;;;;;;;2070908;28;20200;-57
2021/08/03 03:10:56;;;;;;;4.65;3.85;;;;;;;;;;2065983;28;20891;-57
2021/08/03 03:11:57;;;;;;;4.40;4.10;;;;;;;;;;2074562;28;20220;-56
2021/08/03 03:13:01;;;;;;;3.83;3.53;;;;;;;;;;2064474;28;20283;-56
2021/08/03 03:14:02;;;;;;;5.18;4.20;;;;;;;;;;2064137;28;20586;-55
2021/08/03 03:15:06;;;;;;;5.03;4.60;;;;;;;;;;2059207;28;20178;-55
2021/08/03 03:16:07;;;;;;;5.13;3.88;;;;;;;;;;2065157;28;20660;-54
2021/08/03 03:17:08;;;;;;;4.95;4.05;;;;;;;;;;2070893;28;20188;-55
2021/08/03 03:18:09;;;;;;;5.03;4.53;;;;;;;;;;2069920;28;20663;-55
2021/08/03 03:19:10;;;;;;;7.25;5.28;;;;;;;;;;2070893;28;20199;-54
2021/08/03 03:20:12;;;;;;;5.80;5.18;;;;;;;;;;2074141;28;20181;-55
2021/08/03 03:21:16;;;;;;;5.25;4.50;;;;;;;;;;2072399;28;20242;-60
2021/08/03 03:22:17;;;;;;;5.63;4.20;;;;;;;;;;2063495;28;20720;-55
2021/08/03 03:23:18;;;;;;;4.10;3.72;;;;;;;;;;2063776;28;20173;-57
2021/08/03 03:24:20;;;;;;;4.95;4.50;;;;;;;;;;2064098;28;20678;-54
2021/08/03 03:25:24;;;;;;;4.15;3.85;;;;;;;;;;2068859;28;20169;-53
2021/08/03 03:26:27;;;;;;;4.70;3.70;;;;;;;;;;2079234;28;20689;-53
2021/08/03 03:27:29;;;;;;;5.47;3.78;;;;;;;;;;2070641;28;20601;-54
2021/08/03 03:28:31;;;;;;;4.35;3.97;;;;;;;;;;2066199;28;20284;-55
2021/08/03 03:29:35;;;;;;;5.60;4.35;;;;;;;;;;2079295;28;20255;-52
2021/08/03 03:30:37;;;;;;;4.00;3.60;;;;;;;;;;2074335;28;20184;-55
2021/08/03 03:31:37;;;;;;;5.22;4.50;;;;;;;;;;2071756;28;20248;-51
2021/08/03 03:32:38;;;;;;;4.57;4.28;;;;;;;;;;2079493;28;20323;-57
2021/08/03 03:33:41;;;;;;;4.45;4.07;;;;;;;;;;2078716;28;20716;-55
2021/08/03 03:34:43;;;;;;;5.10;3.63;;;;;;;;;;2070594;28;20245;-57
2021/08/03 03:35:45;;;;;;;4.25;3.83;;;;;;;;;;2064259;28;20185;-57
2021/08/03 03:36:47;;;;;;;4.78;4.10;;;;;;;;;;2078044;28;20191;-57
2021/08/03 03:37:49;;;;;;;4.82;4.30;;;;;;;;;;2079389;28;20176;-55
2021/08/03 03:38:50;;;;;;;4.63;4.13;;;;;;;;;;2077055;28;20331;-53
2021/08/03 03:39:51;;;;;;;4.65;4.28;;;;;;;;;;2079730;28;20192;-57
2021/08/03 03:40:53;;;;;;;4.43;4.07;;;;;;;;;;2055169;28;20193;-58
2021/08/03 03:41:56;;;;;;;4.70;4.30;;;;;;;;;;2062217;28;20219;-53
2021/08/03 03:42:56;;;;;;;5.65;4.95;;;;;;;;;;2064508;28;20174;-58
2021/08/03 03:43:57;;;;;;;6.00;5.20;;;;;;;;;;2073084;28;20642;-56
2021/08/03 03:44:59;;;;;;;7.85;4.97;;;;;;;;;;2071504;28;20165;-58
2021/08/03 03:46:04;;;;;;;5.55;5.03;;;;;;;;;;2068953;28;20203;-58
2021/08/03 03:47:08;;;;;;;6.13;5.60;;;;;;;;;;2068997;28;20266;-56
2021/08/03 03:48:10;;;;;;;4.88;4.47;;;;;;;;;;2074411;28;20190;-53
2021/08/03 03:49:11;;;;;;;5.13;4.32;;;;;;;;;;2071739;28;20176;-56
2021/08/03 03:50:16;;;;;;;4.55;4.15;;;;;;;;;;2077643;28;20574;-57
2021/08/03 03:51:18;;;;;;;7.50;5.28;;;;;;;;;;2074536;28;20172;-56
2021/08/03 03:52:21;;;;;;;4.50;4.15;;;;;;;;;;2068345;28;20161;-55
2021/08/03 03:53:23;;;;;;;6.25;4.88;;;;;;;;;;2070801;28;20164;-54
2021/08/03 03:54:26;;;;;;;6.18;4.55;;;;;;;;;;2074388;28;20608;-56
2021/08/03 03:55:27;;;;;;;5.40;3.78;;;;;;;;;;2073372;28;20168;-55
2021/08/03 03:56:36;;;;;;;4.75;4.25;;;;;;;;;;2077848;28;20168;-55
2021/08/03 03:57:37;;;;;;;4.57;4.13;;;;;;;;;;2078270;28;20267;-57
2021/08/03 03:58:39;;;;;;;6.18;3.55;;;;;;;;;;2077463;28;20181;-53
2021/08/03 03:59:41;;;;;;;5.03;3.83;;;;;;;;;;2072771;28;20169;-57
2021/08/03 04:00:41;;;;;;;4.43;3.85;;;;;;;;;;2057675;28;20229;-54
2021/08/03 04:01:43;;;;;;;4.07;3.75;;;;;;;;;;2072588;28;20180;-58
2021/08/03 04:02:44;;;;;;;4.78;4.00;;;;;;;;;;2074247;28;20205;-55
2021/08/03 04:03:50;;;;;;;4.00;3.70;;;;;;;;;;2065683;28;20185;-57
2021/08/03 04:04:51;;;;;;;3.80;3.50;;;;;;;;;;2068426;28;20531;-54
2021/08/03 04:05:53;;;;;;;4.15;3.75;;;;;;;;;;2080603;28;20238;-54
2021/08/03 04:06:54;;;;;;;7.40;3.78;;;;;;;;;;2069263;28;20201;-57
2021/08/03 04:07:54;;;;;;;4.30;3.88;;;;;;;;;;2080815;28;20231;-56
2021/08/03 04:08:56;;;;;;;4.68;4.28;;;;;;;;;;2072416;28;20181;-57
2021/08/03 04:10:03;;;;;;;4.63;4.10;;;;;;;;;;2073907;28;20169;-57
2021/08/03 04:11:05;;;;;;;5.35;3.80;;;;;;;;;;2069325;28;20181;-53
2021/08/03 04:12:06;;;;;;;4.68;3.67;;;;;;;;;;2070663;28;20187;-54
2021/08/03 04:13:09;;;;;;;4.00;3.70;;;;;;;;;;2076759;28;20172;-52
2021/08/03 04:14:11;;;;;;;5.03;4.10;;;;;;;;;;2077456;28;20299;-53
2021/08/03 04:15:12;;;;;;;4.95;3.92;;;;;;;;;;2070010;28;20166;-54
2021/08/03 04:16:14;;;;;;;4.30;3.90;;;;;;;;;;2065445;28;20169;-50
2021/08/03 04:17:14;;;;;;;4.03;3.72;;;;;;;;;;2079253;28;20573;-52
2021/08/03 04:18:16;;;;;;;4.30;4.00;;;;;;;;;;2077280;28;20179;-54
2021/08/03 04:19:19;;;;;;;4.18;3.78;;;;;;;;;;2077498;28;20214;-54
2021/08/03 04:20:20;;;;;;;4.60;4.10;;;;;;;;;;2081766;28;20375;-55
2021/08/03 04:21:20;;;;;;;3.90;3.50;;;;;;;;;;2075772;28;20211;-56
2021/08/03 04:22:20;;;;;;;4.70;3.53;;;;;;;;;;2075848;28;20192;-57
2021/08/03 04:23:21;;;;;;;4.45;4.05;;;;;;;;;;2075922;28;20179;-56
2021/08/03 04:24:21;;;;;;;4.30;3.92;;;;;;;;;;2075980;28;20652;-57
2021/08/03 04:25:21;;;;;;;4.45;4.10;;;;;;;;;;2076694;28;20255;-56
2021/08/03 04:26:21;;;;;;;4.63;3.75;;;;;;;;;;2076652;28;20242;-56
2021/08/03 04:27:22;;;;;;;4.45;4.15;;;;;;;;;;2078180;28;20188;-55
2021/08/03 04:28:22;;;;;;;5.05;3.88;;;;;;;;;;2070111;28;20206;-55
2021/08/03 04:29:22;;;;;;;4.70;4.30;;;;;;;;;;2070367;28;20575;-53
2021/08/03 04:30:22;;;;;;;7.30;5.10;;;;;;;;;;2068422;28;20212;-51
2021/08/03 04:31:23;;;;;;;4.78;4.38;;;;;;;;;;2065275;28;20166;-52
2021/08/03 04:32:23;;;;;;;5.35;4.88;;;;;;;;;;2067990;28;20696;-57
2021/08/03 04:33:23;;;;;;;4.85;4.45;;;;;;;;;;2075511;28;20557;-55
2021/08/03 04:34:23;;;;;;;4.47;4.07;;;;;;;;;;2072448;28;20173;-55
2021/08/03 04:35:24;;;;;;;4.95;4.55;;;;;;;;;;2076353;28;20244;-50
2021/08/03 04:36:24;;;;;;;4.68;4.30;;;;;;;;;;2071651;28;20211;-53
2021/08/03 04:37:24;;;;;;;4.78;4.38;;;;;;;;;;2073940;28;20178;-54
2021/08/03 04:38:25;;;;;;;6.32;4.28;;;;;;;;;;2078186;28;20165;-52
2021/08/03 04:39:25;;;;;;;6.97;4.82;;;;;;;;;;2076620;28;20177;-52
2021/08/03 04:40:26;;;;;;;4.57;4.28;;;;;;;;;;2076692;28;20179;-53
2021/08/03 04:41:26;;;;;;;4.70;4.30;;;;;;;;;;2074268;28;20187;-53
2021/08/03 04:42:26;;;;;;;3.97;3.63;;;;;;;;;;2074567;28;20223;-53
2021/08/03 04:43:27;;;;;;;4.40;3.83;;;;;;;;;;2076752;28;20188;-51
2021/08/03 04:44:27;;;;;;;4.45;4.15;;;;;;;;;;2074316;28;20181;-51
2021/08/03 04:45:27;;;;;;;5.25;4.75;;;;;;;;;;2073867;28;20173;-54
2021/08/03 04:46:28;;;;;;;4.82;4.20;;;;;;;;;;2073690;28;20579;-53
2021/08/03 04:47:28;;;;;;;5.20;4.68;;;;;;;;;;2074700;28;20193;-56
2021/08/03 04:48:28;;;;;;;5.05;4.60;;;;;;;;;;2073460;28;20587;-54
2021/08/03 04:49:28;;;;;;;5.13;4.70;;;;;;;;;;2072062;28;20181;-57
2021/08/03 04:50:29;;;;;;;5.35;4.93;;;;;;;;;;2074611;28;20157;-56
2021/08/03 04:51:29;;;;;;;4.40;4.10;;;;;;;;;;2073570;28;20220;-54
2021/08/03 04:52:29;;;;;;;4.68;4.28;;;;;;;;;;2074322;28;20172;-56
2021/08/03 04:53:29;;;;;;;4.85;4.38;;;;;;;;;;2074654;28;20215;-51
2021/08/03 04:54:30;;;;;;;5.15;4.13;;;;;;;;;;2073146;28;20192;-57
2021/08/03 04:55:30;;;;;;;4.88;4.57;;;;;;;;;;2074315;28;20173;-55
2021/08/03 04:56:30;;;;;;;4.75;4.45;;;;;;;;;;2072238;28;20177;-54
2021/08/03 04:57:31;;;;;;;4.95;4.45;;;;;;;;;;2074037;28;20605;-57
2021/08/03 04:58:31;;;;;;;5.40;5.00;;;;;;;;;;2075554;28;20173;-54
2021/08/03 04:59:31;;;;;;;5.00;4.70;;;;;;;;;;2074558;28;20169;-54
2021/08/03 05:00:32;;;;;;;4.55;4.22;;;;;;;;;;2070631;28;20607;-53
2021/08/03 05:01:32;;;;;;;5.03;4.55;;;;;;;;;;2077133;28;20172;-56
2021/08/03 05:02:32;;;;;;;5.03;4.35;;;;;;;;;;2067672;28;20165;-57
2021/08/03 05:03:33;;;;;;;5.13;4.72;;;;;;;;;;2064824;28;20672;-55
2021/08/03 05:04:36;;;;;;;4.93;4.55;;;;;;;;;;2066316;28;20252;-56
2021/08/03 05:05:37;;;;;;;10.82;9.45;;;;;;;;;;2064895;28;20166;-58
2021/08/03 05:06:37;;;;;;;23.13;20.27;;;;;;;;;;2070640;28;20180;-54
2021/08/03 05:07:37;;;;;;;10.63;9.57;;;;;;;;;;2072772;28;20649;-56
2021/08/03 05:08:38;;;;;;;9.43;8.60;;;;;;;;;;2062298;28;20582;-55
2021/08/03 05:09:38;;;;;;;9.75;8.85;;;;;;;;;;2064602;28;20650;-54
2021/08/03 05:10:39;;;;;;;8.73;5.70;;;;;;;;;;2064841;28;20170;-52
2021/08/03 05:11:39;;;;;;;6.57;6.07;;;;;;;;;;2064481;28;20174;-54
2021/08/03 05:12:39;;;;;;;16.52;14.20;;;;;;;;;;2074494;28;20165;-56
2021/08/03 05:13:40;;;;;;;5.90;5.40;;;;;;;;;;2070060;28;20173;-56
2021/08/03 05:14:40;;;;;;;10.05;8.82;;;;;;;;;;2079867;28;20593;-56
2021/08/03 05:15:40;;;;;;;5.65;5.10;;;;;;;;;;2069085;28;20249;-57
2021/08/03 05:16:40;;;;;;;4.78;4.38;;;;;;;;;;2079877;28;20248;-57
2021/08/03 05:17:41;;;;;;;4.70;4.40;;;;;;;;;;2072469;28;20820;-54
2021/08/03 05:18:41;;;;;;;10.48;9.48;;;;;;;;;;2073890;28;20176;-57
2021/08/03 05:19:41;;;;;;;5.38;4.97;;;;;;;;;;2071232;28;20234;-60
2021/08/03 05:20:43;;;;;;;5.15;4.75;;;;;;;;;;2072480;28;21190;-53
2021/08/03 05:21:43;;;;;;;7.65;7.03;;;;;;;;;;2072765;28;20175;-57
2021/08/03 05:22:44;;;;;;;8.35;7.28;;;;;;;;;;2071577;28;20275;-57
2021/08/03 05:23:44;;;;;;;5.68;5.28;;;;;;;;;;2073152;28;20267;-57
2021/08/03 05:24:44;;;;;;;5.80;5.38;;;;;;;;;;2074995;28;20589;-57
2021/08/03 05:25:44;;;;;;;6.80;6.20;;;;;;;;;;2074321;28;20173;-53
2021/08/03 05:26:45;;;;;;;5.00;4.70;;;;;;;;;;2074277;28;20288;-56
2021/08/03 05:27:45;;;;;;;4.22;3.85;;;;;;;;;;2071936;28;20534;-54
2021/08/03 05:28:45;;;;;;;4.50;4.20;;;;;;;;;;2074296;28;20248;-59
2021/08/03 05:29:46;;;;;;;4.20;3.90;;;;;;;;;;2073046;28;20196;-58
2021/08/03 05:30:47;;;;;;;4.18;3.88;;;;;;;;;;2072602;28;20169;-56
2021/08/03 05:31:47;;;;;;;5.90;5.40;;;;;;;;;;2070358;28;20252;-56
2021/08/03 05:32:48;;;;;;;4.10;3.67;;;;;;;;;;2074196;28;20165;-52
2021/08/03 05:33:48;;;;;;;4.65;4.25;;;;;;;;;;2064303;28;20172;-58
2021/08/03 05:34:48;;;;;;;5.78;4.40;;;;;;;;;;2064731;28;20207;-55
2021/08/03 05:35:48;;;;;;;4.40;4.10;;;;;;;;;;2065009;28;20534;-57
2021/08/03 05:36:49;;;;;;;5.90;5.38;;;;;;;;;;2074364;28;20214;-56
2021/08/03 05:37:49;;;;;;;5.45;5.03;;;;;;;;;;2074531;28;20167;-55
2021/08/03 05:38:49;;;;;;;4.32;3.92;;;;;;;;;;2072230;28;20653;-58
2021/08/03 05:39:50;;;;;;;4.15;3.80;;;;;;;;;;2074325;28;20189;-57
2021/08/03 05:40:50;;;;;;;3.90;3.60;;;;;;;;;;2073881;28;20260;-57
2021/08/03 05:41:50;;;;;;;4.32;3.92;;;;;;;;;;2076449;28;20168;-53
2021/08/03 05:42:50;;;;;;;3.90;3.60;;;;;;;;;;2077290;28;20172;-57
2021/08/03 05:43:51;;;;;;;5.00;4.60;;;;;;;;;;2072497;28;20196;-54
2021/08/03 05:44:51;;;;;;;4.25;3.95;;;;;;;;;;2072621;28;20176;-57
2021/08/03 05:45:51;;;;;;;3.75;3.55;;;;;;;;;;2074407;28;20215;-58
2021/08/03 05:46:51;;;;;;;5.32;3.70;;;;;;;;;;2073825;28;20204;-58
2021/08/03 05:47:52;;;;;;;4.32;3.95;;;;;;;;;;2074057;28;20662;-56
2021/08/03 05:48:52;;;;;;;3.67;3.47;;;;;;;;;;2073331;28;20208;-59
2021/08/03 05:49:52;;;;;;;4.85;3.60;;;;;;;;;;2076696;28;20259;-55
2021/08/03 05:50:52;;;;;;;4.10;3.80;;;;;;;;;;2074695;28;20160;-57
2021/08/03 05:51:55;;;;;;;3.78;3.58;;;;;;;;;;2073381;28;20172;-50
2021/08/03 05:52:55;;;;;;;4.40;4.00;;;;;;;;;;2073328;28;20223;-56
2021/08/03 05:53:56;;;;;;;4.45;4.05;;;;;;;;;;2072369;28;20210;-51
2021/08/03 05:54:56;;;;;;;4.10;3.65;;;;;;;;;;2070773;28;20190;-53
2021/08/03 05:55:57;;;;;;;4.10;3.80;;;;;;;;;;2074655;28;20247;-56
2021/08/03 05:56:57;;;;;;;3.22;3.03;;;;;;;;;;2069992;28;20281;-55
2021/08/03 05:57:57;;;;;;;4.20;3.90;;;;;;;;;;2073310;28;20164;-57
2021/08/03 05:58:58;;;;;;;3.38;3.17;;;;;;;;;;2072575;28;20645;-54
2021/08/03 05:59:58;;;;;;;4.18;3.70;;;;;;;;;;2076182;28;20272;-56
2021/08/03 06:00:58;;;;;;;3.50;3.20;;;;;;;;;;2077131;28;20177;-51
2021/08/03 06:01:58;;;;;;;3.70;3.38;;;;;;;;;;2074394;28;20264;-52
2021/08/03 06:02:59;;;;;;;3.80;3.50;;;;;;;;;;2076677;28;20180;-52
2021/08/03 06:03:59;;;;;;;3.95;3.47;;;;;;;;;;2074533;28;20522;-59
2021/08/03 06:04:59;;;;;;;5.50;3.65;;;;;;;;;;2074563;28;20618;-55
2021/08/03 06:05:59;;;;;;;3.90;3.60;;;;;;;;;;2073728;28;20217;-54
2021/08/03 06:07:02;;;;;;;3.72;3.42;;;;;;;;;;2073192;28;20264;-55
2021/08/03 06:08:05;;;;;;;6.03;4.47;;;;;;;;;;2070200;28;20211;-56
2021/08/03 06:09:10;;;;;;;5.75;5.28;;;;;;;;;;2070664;28;20645;-56
2021/08/03 06:10:11;;;;;;;4.25;3.95;;;;;;;;;;2071662;28;20172;-57
2021/08/03 06:11:16;;;;;;;6.13;4.45;;;;;;;;;;2062322;28;20173;-58
2021/08/03 06:12:17;;;;;;;4.75;3.97;;;;;;;;;;2063780;28;20161;-58
2021/08/03 06:13:18;;;;;;;4.75;4.35;;;;;;;;;;2068901;28;20176;-54
2021/08/03 06:14:26;;;;;;;5.32;4.38;;;;;;;;;;2071510;28;20169;-56
2021/08/03 06:15:28;;;;;;;5.50;4.72;;;;;;;;;;2073143;28;20525;-58
2021/08/03 06:16:29;;;;;;;3.83;3.42;;;;;;;;;;2074397;28;20170;-57